Bonita Beach, Florida
Current Conditions -  °F | °C
As of 6:53 AM on Thursday 23 Oct 2014 (Local Time) from KRSW Reporting Station
Overcast Overcast  
Wind Chill: 69°   Ceiling: 4800
Heat Index: 69°   Visibility: 10mi
Dew Point: 64°   Wind: 7mph
Humidity: 84%   Direction: 40°NE
Pressure: 29.92"   Gusts: NA
Location:  26.3649°N, 81.8304°W
Report Text: KRSW 231053Z 04006KT 10SM OVC048 21/18 A2992 RMK AO2 SLP129 T02060178
Loading
Personal Weather Stations






























Interactive Weather Map
Tropical Storm Tracking
New forecast layout! Learn more

10-Day Weather Forecast

Advertisements
Track Severe Weather on mobile